sensor_id;sensor_type;location;lat;lon;timestamp;pressure;altitude;pressure_sealevel;temperature;humidity
56731;BME280;42613;47.424;8.560;2022-07-23T00:00:15;96803.47;;;25.10;59.97
56731;BME280;42613;47.424;8.560;2022-07-23T00:02:41;96795.06;;;25.01;60.75
56731;BME280;42613;47.424;8.560;2022-07-23T00:05:06;96800.16;;;24.68;62.48
56731;BME280;42613;47.424;8.560;2022-07-23T00:07:32;96789.91;;;24.19;64.96
56731;BME280;42613;47.424;8.560;2022-07-23T00:09:57;96794.78;;;24.27;63.61
56731;BME280;42613;47.424;8.560;2022-07-23T00:12:23;96797.31;;;23.93;64.96
56731;BME280;42613;47.424;8.560;2022-07-23T00:14:48;96787.78;;;24.01;64.29
56731;BME280;42613;47.424;8.560;2022-07-23T00:17:13;96794.28;;;24.10;64.22
56731;BME280;42613;47.424;8.560;2022-07-23T00:19:39;96788.53;;;24.27;63.94
56731;BME280;42613;47.424;8.560;2022-07-23T00:22:04;96773.78;;;24.43;63.76
56731;BME280;42613;47.424;8.560;2022-07-23T00:24:29;96773.59;;;24.24;64.03
56731;BME280;42613;47.424;8.560;2022-07-23T00:26:55;96760.28;;;24.17;64.38
56731;BME280;42613;47.424;8.560;2022-07-23T00:29:20;96757.31;;;24.09;65.71
56731;BME280;42613;47.424;8.560;2022-07-23T00:31:46;96751.22;;;24.37;64.21
56731;BME280;42613;47.424;8.560;2022-07-23T00:34:11;96753.44;;;24.30;64.33
56731;BME280;42613;47.424;8.560;2022-07-23T00:36:36;96759.94;;;24.34;64.45
56731;BME280;42613;47.424;8.560;2022-07-23T00:39:02;96761.06;;;24.28;65.01
56731;BME280;42613;47.424;8.560;2022-07-23T00:41:27;96757.00;;;24.15;66.13
56731;BME280;42613;47.424;8.560;2022-07-23T00:43:53;96752.38;;;24.16;65.86
56731;BME280;42613;47.424;8.560;2022-07-23T00:46:22;96748.44;;;24.58;62.97
56731;BME280;42613;47.424;8.560;2022-07-23T00:48:48;96726.09;;;24.61;63.56
56731;BME280;42613;47.424;8.560;2022-07-23T00:51:15;96737.97;;;24.81;62.17
56731;BME280;42613;47.424;8.560;2022-07-23T00:53:41;96728.00;;;25.05;60.75
56731;BME280;42613;47.424;8.560;2022-07-23T00:56:07;96716.88;;;25.41;59.40
56731;BME280;42613;47.424;8.560;2022-07-23T00:58:35;96704.56;;;25.73;57.91
56731;BME280;42613;47.424;8.560;2022-07-23T01:01:00;96678.25;;;26.11;57.01
56731;BME280;42613;47.424;8.560;2022-07-23T01:03:25;96676.16;;;25.50;60.39
56731;BME280;42613;47.424;8.560;2022-07-23T01:05:51;96670.25;;;25.67;58.55
56731;BME280;42613;47.424;8.560;2022-07-23T01:08:16;96669.69;;;25.70;58.67
56731;BME280;42613;47.424;8.560;2022-07-23T01:10:41;96662.78;;;25.48;59.35
56731;BME280;42613;47.424;8.560;2022-07-23T01:13:08;96676.75;;;25.07;60.85
56731;BME280;42613;47.424;8.560;2022-07-23T01:15:35;96687.22;;;24.45;63.30
56731;BME280;42613;47.424;8.560;2022-07-23T01:18:02;96693.00;;;24.23;64.16
56731;BME280;42613;47.424;8.560;2022-07-23T01:20:28;96695.69;;;24.33;64.37
56731;BME280;42613;47.424;8.560;2022-07-23T01:22:54;96695.97;;;24.32;64.34
56731;BME280;42613;47.424;8.560;2022-07-23T01:25:20;96686.94;;;24.42;63.63
56731;BME280;42613;47.424;8.560;2022-07-23T01:27:45;96677.72;;;24.43;63.35
56731;BME280;42613;47.424;8.560;2022-07-23T01:30:11;96676.09;;;24.31;63.75
56731;BME280;42613;47.424;8.560;2022-07-23T01:32:37;96666.75;;;24.58;62.70
56731;BME280;42613;47.424;8.560;2022-07-23T01:35:03;96654.88;;;24.33;63.42
56731;BME280;42613;47.424;8.560;2022-07-23T01:37:29;96649.38;;;24.44;62.71
56731;BME280;42613;47.424;8.560;2022-07-23T01:39:54;96644.59;;;24.15;63.34
56731;BME280;42613;47.424;8.560;2022-07-23T01:42:19;96667.56;;;23.88;64.41
56731;BME280;42613;47.424;8.560;2022-07-23T01:44:45;96667.63;;;23.63;65.68
56731;BME280;42613;47.424;8.560;2022-07-23T01:47:10;96682.56;;;23.55;66.30
56731;BME280;42613;47.424;8.560;2022-07-23T01:49:35;96692.66;;;23.44;66.13
56731;BME280;42613;47.424;8.560;2022-07-23T01:52:02;96698.09;;;23.29;66.37
56731;BME280;42613;47.424;8.560;2022-07-23T01:54:28;96701.63;;;23.14;66.66
56731;BME280;42613;47.424;8.560;2022-07-23T01:56:54;96682.59;;;23.34;65.01
56731;BME280;42613;47.424;8.560;2022-07-23T01:59:21;96676.00;;;23.92;64.26
56731;BME280;42613;47.424;8.560;2022-07-23T02:01:46;96666.44;;;24.00;62.27
56731;BME280;42613;47.424;8.560;2022-07-23T02:04:11;96679.97;;;24.15;62.95
56731;BME280;42613;47.424;8.560;2022-07-23T02:06:37;96670.78;;;24.06;60.44
56731;BME280;42613;47.424;8.560;2022-07-23T02:09:02;96673.34;;;23.51;61.91
56731;BME280;42613;47.424;8.560;2022-07-23T02:11:28;96681.25;;;23.16;62.96
56731;BME280;42613;47.424;8.560;2022-07-23T02:13:53;96682.81;;;22.76;64.77
56731;BME280;42613;47.424;8.560;2022-07-23T02:16:18;96684.97;;;22.59;65.06
56731;BME280;42613;47.424;8.560;2022-07-23T02:18:44;96682.78;;;22.61;65.31
56731;BME280;42613;47.424;8.560;2022-07-23T02:21:09;96672.00;;;23.02;64.63
56731;BME280;42613;47.424;8.560;2022-07-23T02:23:35;96674.19;;;23.21;63.24
56731;BME280;42613;47.424;8.560;2022-07-23T02:26:00;96669.56;;;23.16;62.74
56731;BME280;42613;47.424;8.560;2022-07-23T02:28:25;96688.84;;;23.14;62.98
56731;BME280;42613;47.424;8.560;2022-07-23T02:30:51;96701.88;;;23.02;63.41
56731;BME280;42613;47.424;8.560;2022-07-23T02:33:16;96707.81;;;22.73;64.63
56731;BME280;42613;47.424;8.560;2022-07-23T02:35:41;96692.28;;;22.69;64.27
56731;BME280;42613;47.424;8.560;2022-07-23T02:38:07;96687.13;;;22.62;64.30
56731;BME280;42613;47.424;8.560;2022-07-23T02:40:32;96672.47;;;22.63;64.97
56731;BME280;42613;47.424;8.560;2022-07-23T02:42:57;96675.19;;;22.68;64.36
56731;BME280;42613;47.424;8.560;2022-07-23T02:45:23;96670.28;;;22.60;64.95
56731;BME280;42613;47.424;8.560;2022-07-23T02:47:48;96686.25;;;22.31;66.02
56731;BME280;42613;47.424;8.560;2022-07-23T02:50:13;96715.97;;;22.10;67.50
56731;BME280;42613;47.424;8.560;2022-07-23T02:52:39;96720.53;;;22.05;67.88
56731;BME280;42613;47.424;8.560;2022-07-23T02:55:05;96726.25;;;22.13;67.43
56731;BME280;42613;47.424;8.560;2022-07-23T02:57:31;96699.56;;;22.43;65.81
56731;BME280;42613;47.424;8.560;2022-07-23T02:59:56;96722.63;;;22.40;66.83
56731;BME280;42613;47.424;8.560;2022-07-23T03:02:21;96742.31;;;22.20;67.16
56731;BME280;42613;47.424;8.560;2022-07-23T03:04:47;96745.09;;;22.25;66.72
56731;BME280;42613;47.424;8.560;2022-07-23T03:07:12;96748.13;;;22.39;66.75
56731;BME280;42613;47.424;8.560;2022-07-23T03:09:37;96749.00;;;22.55;66.51
56731;BME280;42613;47.424;8.560;2022-07-23T03:12:03;96746.25;;;22.50;67.97
56731;BME280;42613;47.424;8.560;2022-07-23T03:14:28;96750.16;;;22.69;67.49
56731;BME280;42613;47.424;8.560;2022-07-23T03:16:54;96756.91;;;22.62;67.93
56731;BME280;42613;47.424;8.560;2022-07-23T03:19:20;96760.72;;;22.61;67.08
56731;BME280;42613;47.424;8.560;2022-07-23T03:21:45;96755.03;;;22.67;66.47
56731;BME280;42613;47.424;8.560;2022-07-23T03:24:10;96745.22;;;22.66;65.90
56731;BME280;42613;47.424;8.560;2022-07-23T03:26:36;96733.03;;;22.74;66.24
